GCFVLEBG

Guest
Details From GCFV - Fuerteventura
To LEBG - Burgos
Flight Number -
Tags generated
Created
Modified
Stats Distance 991 nm / 1,836 km
Max Altitude 35,000 ft / 10,668 m
Waypoints 16
Social Downloads 3
Likes 0
Share

Download

Looking for another format? Having issues loading an existing format? Contact us
Advertisement - Login to hide

Notes

Basic altitude profile: - Ascent Rate: 2500ft/min - Ascent Speed: 250kts - Cruise Altitude: 35000ft - Cruise Speed: 420kts - Descent Rate: 1500ft/min - Descent Speed: 250kts Options: - Use NATs: yes - Use PACOTS: yes - Use low airways: yes - Use high airways: yes

Route

GCFV LZR A857 TERTO UA857 IBALU UR724 OSLAD UM188 VFA UZ1 ALAGU UN979 ELVAR UL14 MINVI LEBG

ID Type Via Altitude (ft/m) Position (lat/lon) Dist (leg/tot) Name
O GCFV APT - 0 / 0 28.44788 / -13.86489 - / 0 nm Fuerteventura
LZR VOR - 15,700 / 4,785 29.16600 / -13.51073 46 / 46 nm LANZAROTE VOR-DME
TERTO FIX A857 (AWY-LO) 23,500 / 7,163 30.10417 / -12.71722 69 / 116 nm
VEDOD FIX UA857 (AWY-HI) 35,000 / 10,668 30.50833 / -12.37500 30 / 146 nm
TURMA FIX UA857 (AWY-HI) 35,000 / 10,668 31.75389 / -11.27750 93 / 240 nm
AMETA FIX UA857 (AWY-HI) 35,000 / 10,668 32.99750 / -10.14833 94 / 334 nm
IBALU FIX UA857 (AWY-HI) 35,000 / 10,668 34.44444 / -8.78917 110 / 445 nm
OSLAD FIX UR724 (AWY-HI) 35,000 / 10,668 35.96667 / -8.31417 94 / 539 nm
OBOLO FIX UM188 (AWY-HI) 35,000 / 10,668 36.53139 / -8.13250 35 / 574 nm
VFA VOR UM188 (AWY-HI) 35,000 / 10,668 37.01352 / -7.97501 29 / 604 nm FARO VOR-DME
ALAGU FIX UZ1 (AWY-HI) 35,000 / 10,668 38.08861 / -7.61444 66 / 671 nm
ELVAR FIX UN979 (AWY-HI) 35,000 / 10,668 39.21945 / -7.22332 70 / 741 nm
RAKOD FIX UL14 (AWY-HI) 35,000 / 10,668 39.78082 / -6.62851 43 / 785 nm
RIDAV FIX UL14 (AWY-HI) 31,500 / 9,601 40.53524 / -5.80829 58 / 843 nm
MINVI FIX UL14 (AWY-HI) 23,500 / 7,163 41.12614 / -5.14818 46 / 890 nm
O LEBG APT - 0 / 0 42.35689 / -3.61422 100 / 991 nm Burgos

Altitude Profile

Advertisement - Login to hide

Weather


0- 5 10 15 20 25 30 35+ Temperature / °C

Clouds and Precipitation
Forecast for 2020-10-24 00:00 UTC. Updated 3 hours ago

Ground ~20,000 ft ~40,000 ft Winds

GCFV

Details ICAO GCFV (FUE)
Name Fuerteventura
Region Canary Islands
Timezone Atlantic/Canary (UTC+1.0)
Stats Elevation 83 ft / 25 m (AMSL)
Location 28.448200° -13.863900°
Runways 1
Magnetic Variation 3.772° W

METAR

GCFV 240000Z AUTO 05015KT 9999 FEW024 21/16 Q1025

Decode

TAF

TAF GCFV 232000Z 2321/2421 02012KT 9999 FEW030 TX24/2414Z TN19/2406Z= TAF GCLA 232000Z 2321/2421 33007KT 9999 SCT030 TX25/2414Z TN20/2406Z

Decode

Departure Runways

ID Width Length Bearing (true/mag) Surface Threshold Overrun Markings Lighting
01 148 ft / 45 m 11,185 ft / 3,409 m 1.66° / 5.43° ASPHALT 3,274 ft / 998 m 0 ft / 0 m PREC-APP CENTERLINE EDGE THRESHOLD CALVERT-ILS TDZ REIL-OMNI
19 148 ft / 45 m 11,185 ft / 3,409 m 181.66° / 185.43° ASPHALT 1,506 ft / 459 m 0 ft / 0 m PREC-APP CENTERLINE EDGE THRESHOLD CALVERT-ILS TDZ REIL-OMNI

LEBG

Details ICAO LEBG (RGS)
Name Burgos
Region Spain
Timezone Europe/Madrid (UTC+2.0)
Stats Elevation 2,961 ft / 903 m (AMSL)
Location 42.356900° -3.614220°
Runways 1
Magnetic Variation 0.431° W

METAR

LEBG 240000Z AUTO 19008KT CAVOK 07/06 Q1025

Decode

TAF

TAF LEBG 232000Z 2321/2421 23006KT 9999 SCT040 TX14/2415Z TN06/2407Z BECMG 2400/2402 BKN006 PROB40 TEMPO 2402/2409 1500 BCFG BKN003 PROB30 TEMPO 2402/2406 0200 FG OVC001 BECMG 2409/2411 22016KT PROB40 TEMPO 2410/2421 23018G28KT

Decode

Destination Runways

ID Width Length Bearing (true/mag) Surface Threshold Overrun Markings Lighting
04 148 ft / 45 m 6,423 ft / 1,958 m 43.31° / 43.74° ASPHALT 0 ft / 0 m 0 ft / 0 m APP CENTERLINE SALS TDZ REIL-OMNI
22 148 ft / 45 m 6,423 ft / 1,958 m 223.32° / 223.75° ASPHALT 0 ft / 0 m 0 ft / 0 m APP CENTERLINE SALS TDZ

Popular Alternatives